Time;durP1;ratioP1;P1;durP2;ratioP2;P2;SDS_P1;SDS_P2;PMS_P1;PMS_P2;Temp;Humidity;BMP_temperature;BMP_pressure;BME280_temperature;BME280_humidity;BME280_pressure;Samples;Min_cycle;Max_cycle;Signal;HPM_P1;HPM_P2
2021/08/14 00:01:07;;;;;;;;;18.20;16.40;;;;;22.90;56.98;101573.69;4956581;28;8822;-80
2021/08/14 00:03:35;;;;;;;;;19.40;19.00;;;;;22.97;57.04;101567.28;4957761;28;9053;-80
2021/08/14 00:06:31;;;;;;;;;14.00;14.00;;;;;22.76;56.68;101563.09;4956936;28;8871;-77
2021/08/14 00:09:26;;;;;;;;;16.40;16.40;;;;;22.87;56.73;101566.03;4948607;29;8845;-78
2021/08/14 00:12:23;;;;;;;;;14.60;14.00;;;;;22.87;57.12;101574.50;4936805;29;8849;-78
2021/08/14 00:15:19;;;;;;;;;17.40;15.40;;;;;22.85;57.75;101576.91;4937375;29;8857;-78
2021/08/14 00:18:14;;;;;;;;;16.80;16.80;;;;;22.74;56.36;101571.16;4936671;29;8861;-78
2021/08/14 00:21:10;;;;;;;;;14.60;14.20;;;;;22.92;57.88;101576.13;4937280;29;8841;-77
2021/08/14 00:24:05;;;;;;;;;14.20;14.20;;;;;22.97;56.32;101582.19;4936872;29;8860;-80
2021/08/14 00:27:01;;;;;;;;;13.40;13.20;;;;;22.79;56.32;101572.81;4935932;29;8928;-77
2021/08/14 00:29:29;;;;;;;;;12.40;12.40;;;;;22.76;57.48;101576.41;4920944;29;8880;-76
2021/08/14 00:32:25;;;;;;;;;14.80;13.80;;;;;22.46;55.69;101571.75;4923585;29;8873;-81
2021/08/14 00:34:53;;;;;;;;;14.00;14.00;;;;;22.41;55.87;101583.41;4937290;29;8849;-78
2021/08/14 00:37:20;;;;;;;;;17.40;13.20;;;;;22.42;56.17;101578.59;4938332;29;8895;-78
2021/08/14 00:40:16;;;;;;;;;14.00;14.00;;;;;22.59;58.20;101577.09;4937194;29;8923;-76
2021/08/14 00:43:11;;;;;;;;;13.80;13.80;;;;;22.32;56.62;101577.31;4936793;29;8999;-78
2021/08/14 00:46:07;;;;;;;;;11.00;11.00;;;;;21.77;57.84;101574.31;4937362;29;8987;-79
2021/08/14 00:49:03;;;;;;;;;12.25;12.00;;;;;21.95;58.19;101579.34;4937228;29;8841;-78
2021/08/14 00:51:59;;;;;;;;;10.00;10.00;;;;;22.07;57.08;101571.41;4935979;29;8979;-81
2021/08/14 00:54:55;;;;;;;;;7.00;7.00;;;;;21.68;57.01;101570.22;4924393;29;8853;-87
2021/08/14 00:57:42;;;;;;;;;10.40;9.40;;;;;21.76;57.31;101567.09;4937670;29;8963;-78
2021/08/14 01:00:39;;;;;;;;;10.50;10.50;;;;;21.79;58.35;101563.50;4935081;29;8864;-78
2021/08/14 01:03:11;;;;;;;;;9.50;9.50;;;;;21.64;57.38;101565.38;4937544;29;8872;-80
2021/08/14 01:06:07;;;;;;;;;10.00;10.00;;;;;21.55;57.13;101564.06;4946515;29;8865;-83
2021/08/14 01:09:03;;;;;;;;;12.00;12.00;;;;;21.92;60.11;101559.19;4940745;28;8863;-76
2021/08/14 01:12:01;;;;;;;;;12.00;11.00;;;;;21.84;58.78;101551.06;4955879;28;8846;-78
2021/08/14 01:14:57;;;;;;;;;9.75;9.75;;;;;21.81;57.44;101554.66;4942887;28;8855;-79
2021/08/14 01:17:53;;;;;;;;;12.75;12.25;;;;;21.68;58.52;101553.31;4955327;28;8850;-78
2021/08/14 01:20:49;;;;;;;;;13.25;12.25;;;;;21.48;57.87;101550.72;4943295;28;8950;-80
2021/08/14 01:23:46;;;;;;;;;8.75;8.75;;;;;21.44;58.45;101547.03;4954774;28;8846;-77
2021/08/14 01:26:42;;;;;;;;;10.25;10.25;;;;;21.18;57.57;101539.47;4955282;28;8846;-84
2021/08/14 01:29:38;;;;;;;;;9.25;9.25;;;;;21.57;60.33;101545.59;4943280;28;8877;-78
2021/08/14 01:32:34;;;;;;;;;10.50;10.50;;;;;21.25;57.72;101542.38;4955870;28;8878;-83
2021/08/14 01:35:30;;;;;;;;;7.25;7.25;;;;;21.43;59.42;101545.41;4942381;28;8869;-77
2021/08/14 01:38:09;;;;;;;;;10.75;10.75;;;;;21.19;58.50;101541.09;4956214;28;8859;-79
2021/08/14 01:41:07;;;;;;;;;10.00;9.75;;;;;21.15;58.56;101542.22;4954664;28;8836;-77
2021/08/14 01:44:08;;;;;;;;;9.50;9.50;;;;;21.18;60.36;101542.28;4953525;28;9571;-76
2021/08/14 01:47:04;;;;;;;;;10.75;10.75;;;;;21.16;61.34;101530.59;4955524;28;8864;-77
2021/08/14 01:50:00;;;;;;;;;11.00;11.00;;;;;21.29;59.62;101539.63;4954772;28;8963;-76
2021/08/14 01:52:56;;;;;;;;;15.00;11.25;;;;;21.17;59.07;101540.66;4956989;28;8847;-79
2021/08/14 01:55:52;;;;;;;;;9.50;9.50;;;;;21.29;60.40;101539.63;4954751;29;8855;-77
2021/08/14 01:58:48;;;;;;;;;11.25;11.25;;;;;21.26;59.07;101537.56;4954808;28;8886;-78
2021/08/14 02:01:43;;;;;;;;;14.75;13.75;;;;;21.35;58.99;101549.34;4954265;29;8844;-77
2021/08/14 02:04:39;;;;;;;;;13.25;10.00;;;;;21.46;59.59;101535.38;4955284;28;8873;-77
2021/08/14 02:07:36;;;;;;;;;12.50;11.00;;;;;21.41;58.93;101535.75;4955484;29;9598;-78
2021/08/14 02:10:32;;;;;;;;;9.00;9.00;;;;;21.34;59.26;101534.47;4938533;29;8893;-77
2021/08/14 02:13:01;;;;;;;;;13.25;12.25;;;;;21.30;59.07;101533.59;4920894;29;8850;-77
2021/08/14 02:15:58;;;;;;;;;11.75;11.50;;;;;21.22;58.73;101531.88;4935706;29;8874;-80
2021/08/14 02:18:53;;;;;;;;;13.50;13.50;;;;;21.08;58.98;101528.88;4937406;29;8945;-78
2021/08/14 02:21:49;;;;;;;;;15.75;15.75;;;;;21.05;59.24;101529.66;4935395;29;8871;-79
2021/08/14 02:24:44;;;;;;;;;13.00;12.00;;;;;21.01;59.45;101542.84;4937137;29;8892;-78
2021/08/14 02:27:40;;;;;;;;;15.00;13.75;;;;;21.33;60.08;101537.69;4935547;29;8956;-77
2021/08/14 02:30:35;;;;;;;;;6.75;6.50;;;;;20.94;59.55;101534.34;4937116;29;8858;-81
2021/08/14 02:33:31;;;;;;;;;14.00;13.25;;;;;20.81;59.80;101533.75;4935027;29;8940;-83
2021/08/14 02:36:27;;;;;;;;;11.50;11.25;;;;;20.77;60.05;101536.50;4926009;29;8860;-85
2021/08/14 02:38:55;;;;;;;;;15.25;14.00;;;;;20.96;60.01;101537.56;4922998;29;8941;-77
2021/08/14 02:41:51;;;;;;;;;17.25;14.75;;;;;20.88;59.74;101539.47;4937758;29;8983;-78
2021/08/14 02:44:46;;;;;;;;;16.50;15.75;;;;;20.86;59.35;101541.06;4939879;29;8889;-80
2021/08/14 02:47:42;;;;;;;;;14.75;14.50;;;;;20.98;59.65;101541.63;4939100;29;8885;-77
2021/08/14 02:50:41;;;;;;;;;7.00;6.33;;;;;21.04;60.23;101544.91;4939093;29;8847;-79
2021/08/14 02:53:36;;;;;;;;;14.75;13.75;;;;;20.90;60.97;101539.09;4949420;29;8898;-77
2021/08/14 02:56:32;;;;;;;;;14.25;13.25;;;;;20.83;59.56;101543.44;4938692;29;8873;-77
2021/08/14 02:59:00;;;;;;;;;16.75;16.75;;;;;21.05;60.25;101543.72;4939431;29;8889;-77
2021/08/14 03:01:55;;;;;;;;;13.50;11.00;;;;;20.96;59.64;101538.38;4938874;29;8867;-78
2021/08/14 03:04:51;;;;;;;;;15.75;15.25;;;;;20.99;60.03;101540.44;4939849;29;8838;-77
2021/08/14 03:07:47;;;;;;;;;14.75;14.00;;;;;20.97;61.19;101539.19;4939770;29;9629;-77
2021/08/14 03:10:43;;;;;;;;;9.75;9.75;;;;;20.68;60.32;101538.78;4946588;29;8867;-78
2021/08/14 03:13:25;;;;;;;;;12.25;11.75;;;;;20.88;61.67;101536.66;4938839;29;8915;-78
2021/08/14 03:16:21;;;;;;;;;11.00;11.00;;;;;21.00;60.38;101546.84;4939058;29;8879;-77
2021/08/14 03:19:16;;;;;;;;;11.50;11.00;;;;;21.19;60.15;101545.91;4939706;29;8900;-79
2021/08/14 03:22:12;;;;;;;;;16.00;14.50;;;;;21.27;59.66;101553.25;4938012;29;8857;-77
2021/08/14 03:25:08;;;;;;;;;13.25;12.50;;;;;21.13;59.66;101553.88;4926492;29;8844;-78
2021/08/14 03:28:04;;;;;;;;;13.00;12.75;;;;;21.35;60.52;101552.16;4937297;29;8881;-77
2021/08/14 03:30:59;;;;;;;;;13.25;13.25;;;;;21.57;60.69;101556.84;4937845;29;8850;-77
2021/08/14 03:33:55;;;;;;;;;19.00;19.00;;;;;21.56;59.97;101557.22;4937799;29;8971;-77
2021/08/14 03:36:51;;;;;;;;;18.00;18.00;;;;;21.52;59.68;101559.19;4937785;29;9589;-78
2021/08/14 03:39:46;;;;;;;;;18.50;17.00;;;;;21.29;59.40;101560.13;4938736;28;8979;-76
2021/08/14 03:42:50;;;;;;;;;18.75;16.50;;;;;21.35;59.74;101558.59;4944559;28;8873;-78
2021/08/14 03:45:46;;;;;;;;;21.00;18.50;;;;;21.61;59.81;101563.31;4943158;28;8852;-79
2021/08/14 03:48:43;;;;;;;;;17.25;16.50;;;;;21.72;58.20;101560.63;4944985;28;8903;-79
2021/08/14 03:51:11;;;;;;;;;19.25;19.25;;;;;21.79;59.31;101557.88;4941258;28;8979;-78
2021/08/14 03:54:06;;;;;;;;;19.75;19.00;;;;;21.85;59.48;101561.97;4956674;28;9243;-78
2021/08/14 03:57:02;;;;;;;;;22.50;21.00;;;;;21.71;58.56;101570.25;4957417;28;8857;-78
2021/08/14 03:59:58;;;;;;;;;22.00;20.00;;;;;22.20;59.17;101577.59;4958017;28;8860;-79
2021/08/14 04:02:53;;;;;;;;;16.50;15.25;;;;;22.17;58.42;101570.75;4956198;28;8877;-77
2021/08/14 04:05:49;;;;;;;;;19.25;18.75;;;;;22.09;58.74;101569.06;4957110;28;8853;-77
2021/08/14 04:08:45;;;;;;;;;14.00;13.80;;;;;22.24;58.11;101567.19;4946368;28;9591;-79
2021/08/14 04:11:44;;;;;;;;;17.50;16.75;;;;;22.33;57.87;101573.28;4958602;28;8853;-78
2021/08/14 04:14:39;;;;;;;;;11.40;11.40;;;;;22.49;57.69;101573.00;4937797;29;8990;-78
2021/08/14 04:17:21;;;;;;;;;12.25;12.25;;;;;22.33;57.76;101570.47;4939196;29;8879;-78
2021/08/14 04:20:18;;;;;;;;;13.80;13.80;;;;;22.75;56.52;101574.78;4937658;29;8990;-79
2021/08/14 04:23:13;;;;;;;;;12.80;12.40;;;;;22.72;57.37;101573.56;4938704;29;8816;-79
2021/08/14 04:26:09;;;;;;;;;14.00;13.00;;;;;22.67;57.36;101568.28;4923878;29;9633;-78
2021/08/14 04:29:05;;;;;;;;;12.80;12.80;;;;;22.72;56.73;101581.22;4938289;29;8840;-77
2021/08/14 04:32:00;;;;;;;;;12.80;12.80;;;;;22.83;56.88;101589.75;4936730;29;8851;-76
2021/08/14 04:34:56;;;;;;;;;15.25;15.25;;;;;22.61;57.38;101588.78;4938341;29;8860;-82
2021/08/14 04:37:51;;;;;;;;;13.80;13.80;;;;;22.90;56.34;101589.81;4937693;29;8848;-77
2021/08/14 04:40:48;;;;;;;;;12.20;12.20;;;;;22.86;56.15;101597.47;4944069;28;8857;-78
2021/08/14 04:43:43;;;;;;;;;15.00;14.80;;;;;23.08;57.00;101589.91;4935511;29;8869;-76
2021/08/14 04:46:39;;;;;;;;;13.40;13.40;;;;;23.13;55.95;101589.53;4936782;29;8848;-78
2021/08/14 04:49:34;;;;;;;;;14.20;14.20;;;;;23.35;56.55;101598.91;4937488;29;8856;-77
2021/08/14 04:52:31;;;;;;;;;14.40;14.40;;;;;23.53;56.05;101589.28;4924040;29;8962;-78
2021/08/14 04:54:59;;;;;;;;;11.00;11.00;;;;;23.25;55.61;101592.84;4937240;29;8906;-78
2021/08/14 04:57:55;;;;;;;;;9.60;9.60;;;;;23.48;55.35;101594.53;4935213;29;8867;-77
2021/08/14 05:00:50;;;;;;;;;11.00;10.40;;;;;23.64;55.55;101608.34;4936459;29;8860;-79
2021/08/14 05:03:46;;;;;;;;;13.20;12.20;;;;;23.51;55.89;101608.66;4935887;29;8855;-81
2021/08/14 05:06:14;;;;;;;;;13.60;13.20;;;;;23.81;55.24;101608.38;4936497;29;8894;-78
2021/08/14 05:09:14;;;;;;;;;9.40;9.40;;;;;23.99;55.27;101608.41;4936057;29;8987;-78
2021/08/14 05:12:09;;;;;;;;;18.60;16.80;;;;;23.88;55.63;101610.41;4936579;28;8841;-78
2021/08/14 05:15:06;;;;;;;;;14.40;14.40;;;;;24.01;54.47;101614.47;4939604;28;8863;-80
2021/08/14 05:18:01;;;;;;;;;11.00;10.20;;;;;24.08;54.55;101608.84;4955981;28;8865;-78
2021/08/14 05:20:57;;;;;;;;;14.40;13.80;;;;;24.04;54.49;101613.66;4955329;28;8889;-82
2021/08/14 05:23:52;;;;;;;;;19.80;19.00;;;;;24.18;55.29;101614.91;4955275;28;8845;-79
2021/08/14 05:26:22;;;;;;;;;46.00;38.50;;;;;24.19;55.78;101610.88;4967710;28;8871;-78
2021/08/14 05:29:18;;;;;;;;;25.80;25.00;;;;;24.37;55.60;101612.50;4959520;28;8878;-79
2021/08/14 05:32:14;;;;;;;;;16.00;14.80;;;;;24.60;54.65;101614.13;4955640;28;8859;-80
2021/08/14 05:35:10;;;;;;;;;12.60;12.60;;;;;24.82;53.80;101615.72;4956565;28;8887;-78
2021/08/14 05:38:06;;;;;;;;;23.80;23.60;;;;;24.74;53.94;101618.97;4953915;28;8864;-79
2021/08/14 05:41:03;;;;;;;;;15.20;15.20;;;;;24.79;52.76;101632.72;4954269;28;8884;-82
2021/08/14 05:43:35;;;;;;;;;11.80;10.80;;;;;24.78;54.48;101620.59;4954930;28;8857;-83
2021/08/14 05:46:05;;;;;;;;;19.20;18.60;;;;;24.69;54.44;101623.03;4955657;28;8837;-83
2021/08/14 05:48:33;;;;;;;;;22.00;19.00;;;;;24.82;54.98;101620.56;4954681;28;8873;-77
2021/08/14 05:51:01;;;;;;;;;15.80;15.80;;;;;25.04;54.51;101616.50;4955375;28;8885;-78
2021/08/14 05:53:57;;;;;;;;;38.80;34.00;;;;;24.85;54.50;101622.59;4954155;28;8857;-78
2021/08/14 05:56:24;;;;;;;;;29.00;27.40;;;;;25.08;54.79;101620.16;4938754;29;8877;-77
2021/08/14 05:59:20;;;;;;;;;18.80;18.40;;;;;25.01;54.47;101622.97;4941203;29;8892;-78
2021/08/14 06:02:03;;;;;;;;;17.00;16.20;;;;;25.03;53.45;101622.56;4955239;29;8987;-79
2021/08/14 06:04:33;;;;;;;;;16.80;16.80;;;;;25.18;53.48;101618.50;4922398;29;8864;-78
2021/08/14 06:07:28;;;;;;;;;19.40;18.00;;;;;25.43;54.18;101618.41;4963718;28;8881;-78
2021/08/14 06:10:24;;;;;;;;;59.00;46.50;;;;;25.19;53.25;101622.94;4961685;28;8902;-81
2021/08/14 06:13:19;;;;;;;;;51.25;40.75;;;;;25.32;53.73;101620.47;4947509;28;8964;-82
2021/08/14 06:16:16;;;;;;;;;53.00;41.00;;;;;25.35;53.08;101622.47;4944785;28;8861;-79
2021/08/14 06:19:12;;;;;;;;;24.40;24.40;;;;;25.50;53.38;101615.53;4957663;28;8857;-77
2021/08/14 06:21:40;;;;;;;;;42.00;35.25;;;;;25.41;52.77;101615.19;4960260;28;8869;-82
2021/08/14 06:24:08;;;;;;;;;43.00;35.25;;;;;25.44;52.65;101617.19;4960761;28;8861;-81
2021/08/14 06:26:36;;;;;;;;;50.25;41.75;;;;;25.59;52.66;101612.25;4958963;28;8865;-79
2021/08/14 06:29:03;;;;;;;;;50.00;39.25;;;;;25.76;52.17;101617.03;4942844;28;9606;-81
2021/08/14 06:31:31;;;;;;;;;43.00;34.75;;;;;25.78;51.60;101618.25;4959065;28;8877;-80
2021/08/14 06:34:00;;;;;;;;;24.00;23.80;;;;;25.72;51.34;101614.25;4962079;28;8885;-81
2021/08/14 06:36:28;;;;;;;;;26.00;24.80;;;;;25.65;51.26;101613.44;4929783;28;8979;-79
2021/08/14 06:38:56;;;;;;;;;24.80;20.80;;;;;25.88;51.31;101616.59;4958307;28;8943;-78
2021/08/14 06:41:24;;;;;;;;;26.00;24.40;;;;;25.75;51.20;101624.75;4943424;28;8848;-81
2021/08/14 06:43:53;;;;;;;;;29.20;28.40;;;;;26.00;51.21;101620.97;4942699;28;8927;-79
2021/08/14 06:46:21;;;;;;;;;27.60;26.20;;;;;25.84;51.25;101626.31;4941805;28;8868;-78
2021/08/14 06:48:49;;;;;;;;;19.00;18.00;;;;;25.94;50.37;101628.28;4958268;28;8865;-78
2021/08/14 06:51:17;;;;;;;;;18.40;16.80;;;;;26.24;49.11;101622.81;4958969;28;8873;-79
2021/08/14 06:53:45;;;;;;;;;17.40;17.40;;;;;26.01;49.90;101626.22;4959970;28;8966;-80
2021/08/14 06:56:14;;;;;;;;;14.80;14.80;;;;;26.28;49.12;101626.41;4941417;28;8849;-78
2021/08/14 06:58:42;;;;;;;;;14.60;13.00;;;;;26.41;48.70;101626.75;4958379;28;8877;-77
2021/08/14 07:01:09;;;;;;;;;11.40;11.40;;;;;26.36;49.29;101627.16;4958471;28;8939;-79
2021/08/14 07:03:40;;;;;;;;;10.60;10.60;;;;;26.27;48.79;101635.34;4960167;28;8931;-82
2021/08/14 07:06:08;;;;;;;;;11.00;11.00;;;;;26.34;48.34;101632.47;4942285;28;8869;-81
2021/08/14 07:08:35;;;;;;;;;10.00;10.00;;;;;26.45;48.83;101644.53;4960312;28;8880;-78
2021/08/14 07:11:19;;;;;;;;;9.60;9.60;;;;;26.38;48.94;101632.41;4944612;28;8951;-79
2021/08/14 07:13:49;;;;;;;;;9.00;9.00;;;;;26.23;48.39;101626.88;4958753;28;8861;-79
2021/08/14 07:16:18;;;;;;;;;9.40;9.00;;;;;25.87;48.96;101620.63;4943249;28;8947;-83
2021/08/14 07:18:50;;;;;;;;;9.40;9.40;;;;;26.23;48.66;101617.56;4957468;28;8987;-78
2021/08/14 07:21:20;;;;;;;;;8.60;8.60;;;;;26.38;48.89;101623.91;4958199;28;8980;-81
2021/08/14 07:23:48;;;;;;;;;13.00;12.60;;;;;26.24;48.24;101617.16;4941937;28;8907;-79
2021/08/14 07:26:17;;;;;;;;;11.00;11.00;;;;;26.49;48.72;101619.00;4957347;28;8999;-79
2021/08/14 07:28:45;;;;;;;;;10.60;10.60;;;;;26.86;48.01;101621.88;4948723;28;8907;-79
2021/08/14 07:31:42;;;;;;;;;10.60;10.40;;;;;26.59;48.03;101627.41;4953328;28;8862;-78
2021/08/14 07:34:38;;;;;;;;;7.60;7.60;;;;;26.22;47.01;101621.59;4953842;28;8890;-78
2021/08/14 07:37:46;;;;;;;;;10.20;10.00;;;;;26.31;47.01;101624.78;4949156;28;8879;-84
2021/08/14 07:40:20;;;;;;;;;7.20;7.20;;;;;26.77;46.73;101615.91;4954723;28;8940;-78
2021/08/14 07:43:15;;;;;;;;;10.00;10.00;;;;;26.81;46.26;101621.53;4953891;28;8973;-78
2021/08/14 07:45:45;;;;;;;;;7.80;7.80;;;;;26.82;46.03;101615.44;4950808;28;8863;-77
2021/08/14 07:48:41;;;;;;;;;6.60;6.60;;;;;26.87;45.58;101619.84;4941651;28;8969;-76
2021/08/14 07:51:36;;;;;;;;;9.20;9.20;;;;;27.15;44.62;101608.22;4946126;28;8927;-78
2021/08/14 07:54:32;;;;;;;;;22.20;21.60;;;;;27.07;45.51;101611.56;4954933;28;8890;-78
2021/08/14 07:56:59;;;;;;;;;39.60;34.80;;;;;27.42;45.76;101613.16;4954481;28;8934;-77
2021/08/14 07:59:58;;;;;;;;;23.20;23.20;;;;;27.79;45.09;101611.50;4946400;28;8856;-78
2021/08/14 08:02:54;;;;;;;;;51.00;43.00;;;;;27.84;44.13;101611.81;4953223;28;8899;-79
2021/08/14 08:05:25;;;;;;;;;22.80;22.80;;;;;27.94;43.20;101601.53;4933970;28;8870;-79
2021/08/14 08:08:21;;;;;;;;;8.20;8.20;;;;;28.05;42.47;101599.31;4953231;28;8859;-81
2021/08/14 08:11:18;;;;;;;;;16.60;16.40;;;;;27.98;42.89;101588.84;4955928;28;8845;-80
2021/08/14 08:13:51;;;;;;;;;11.00;11.00;;;;;27.82;43.30;101594.38;4952916;28;8919;-81
2021/08/14 08:16:19;;;;;;;;;8.20;8.20;;;;;27.77;42.20;101594.88;4952877;28;8892;-78
2021/08/14 08:18:47;;;;;;;;;22.00;22.00;;;;;27.86;42.10;101600.81;4952906;28;8952;-82
2021/08/14 08:21:43;;;;;;;;;24.60;24.00;;;;;28.18;41.83;101588.16;4947836;28;8865;-82
2021/08/14 08:24:39;;;;;;;;;47.20;40.20;;;;;28.55;41.38;101590.00;4960945;28;8886;-79
2021/08/14 08:27:06;;;;;;;;;25.00;23.80;;;;;28.23;40.77;101585.63;4960488;28;8878;-79
2021/08/14 08:30:02;;;;;;;;;29.00;28.40;;;;;27.96;40.29;101574.25;4959545;28;8882;-81
2021/08/14 08:32:58;;;;;;;;;11.00;11.00;;;;;27.84;41.32;101574.88;4951250;28;8838;-80
2021/08/14 08:35:54;;;;;;;;;13.80;13.80;;;;;28.27;41.93;101582.72;4953238;28;8872;-78
2021/08/14 08:38:49;;;;;;;;;10.00;10.00;;;;;28.38;40.93;101577.69;4951691;28;8846;-78
2021/08/14 08:41:32;;;;;;;;;18.20;18.20;;;;;28.61;40.93;101582.56;4943825;28;8879;-79
2021/08/14 08:44:00;;;;;;;;;19.40;19.40;;;;;29.05;39.78;101578.47;4954273;28;8863;-81
2021/08/14 08:46:31;;;;;;;;;11.80;11.80;;;;;29.05;39.87;101591.91;4926245;28;8881;-81
2021/08/14 08:49:27;;;;;;;;;10.00;10.00;;;;;28.74;40.35;101582.72;4953232;28;8886;-78
2021/08/14 08:52:09;;;;;;;;;10.60;10.60;;;;;28.56;40.07;101576.56;4956493;28;8894;-79
2021/08/14 08:55:10;;;;;;;;;13.40;13.40;;;;;28.55;41.31;101581.44;4952801;28;8858;-80
2021/08/14 08:58:09;;;;;;;;;11.60;11.60;;;;;28.30;41.39;101581.09;4953374;28;8865;-78
2021/08/14 09:00:36;;;;;;;;;14.40;14.40;;;;;28.51;41.37;101566.47;4952467;28;8893;-79
2021/08/14 09:03:13;;;;;;;;;11.00;11.00;;;;;28.29;40.59;101571.69;4955069;28;8879;-84
2021/08/14 09:06:11;;;;;;;;;10.80;10.80;;;;;28.48;40.82;101562.47;4953384;28;8885;-78
2021/08/14 09:09:08;;;;;;;;;10.60;10.60;;;;;28.57;41.80;101575.31;4954079;28;8879;-85
2021/08/14 09:12:04;;;;;;;;;10.00;10.00;;;;;28.68;41.14;101556.81;4953408;28;8884;-78
2021/08/14 09:15:19;;;;;;;;;7.60;7.60;;;;;28.53;39.70;101559.13;4954009;28;8872;-78
2021/08/14 09:18:10;;;;;;;;;6.60;6.60;;;;;28.65;39.82;101551.97;4954691;28;8876;-82
2021/08/14 09:21:09;;;;;;;;;6.40;6.40;;;;;28.69;39.96;101557.63;4940753;28;8930;-83
2021/08/14 09:23:50;;;;;;;;;6.60;6.60;;;;;28.59;38.66;101565.09;4953570;28;9650;-79
2021/08/14 09:26:46;;;;;;;;;6.80;6.80;;;;;28.79;38.60;101556.59;4950900;28;8907;-81
2021/08/14 09:29:39;;;;;;;;;6.80;6.40;;;;;28.97;38.77;101547.72;4954318;28;8885;-81
2021/08/14 09:32:35;;;;;;;;;5.60;5.60;;;;;29.38;38.19;101538.75;4954933;28;8876;-80
2021/08/14 09:35:33;;;;;;;;;4.60;4.40;;;;;29.80;38.16;101539.00;4957261;28;8885;-82
2021/08/14 09:38:55;;;;;;;;;6.20;6.20;;;;;29.92;37.81;101549.72;4944151;28;8885;-84
2021/08/14 09:42:08;;;;;;;;;4.80;4.80;;;;;29.83;37.53;101541.00;4943625;28;8877;-86
2021/08/14 09:44:37;;;;;;;;;5.80;5.80;;;;;29.93;37.31;101534.22;4940930;28;9594;-80
2021/08/14 09:47:33;;;;;;;;;6.60;6.20;;;;;29.73;37.75;101539.19;4956228;28;8889;-83
2021/08/14 09:50:34;;;;;;;;;7.40;7.40;;;;;30.14;37.71;101530.88;4957485;28;8853;-83
2021/08/14 09:53:30;;;;;;;;;3.60;3.60;;;;;30.23;37.83;101518.03;4949049;28;8875;-78
2021/08/14 09:56:32;;;;;;;;;7.40;7.40;;;;;30.12;37.93;101519.09;4941740;28;8840;-80
2021/08/14 09:59:27;;;;;;;;;8.20;8.20;;;;;30.10;38.18;101513.03;4934854;29;8879;-79
2021/08/14 10:02:02;;;;;;;;;6.40;6.40;;;;;30.02;37.89;101531.53;4935762;29;8859;-81
2021/08/14 10:05:00;;;;;;;;;5.00;5.00;;;;;30.14;37.15;101510.91;4935488;29;9617;-76
2021/08/14 10:07:56;;;;;;;;;5.60;5.60;;;;;30.32;37.99;101503.91;4940032;29;9770;-80
2021/08/14 10:10:52;;;;;;;;;9.00;8.20;;;;;29.98;37.90;101501.50;4934668;29;8887;-81
2021/08/14 10:13:49;;;;;;;;;6.00;6.00;;;;;29.51;38.87;101508.31;4921696;29;8847;-76
2021/08/14 10:16:45;;;;;;;;;7.40;7.40;;;;;29.46;39.08;101508.84;4947670;29;8873;-81
2021/08/14 10:19:40;;;;;;;;;7.60;7.60;;;;;28.98;39.45;101503.78;4956970;29;9598;-83
2021/08/14 10:22:37;;;;;;;;;7.20;7.20;;;;;29.30;39.66;101508.81;4941893;29;8891;-85
2021/08/14 10:25:35;;;;;;;;;1.40;1.40;;;;;29.28;38.67;101491.31;4942820;29;8853;-78
2021/08/14 10:28:42;;;;;;;;;5.20;5.20;;;;;29.23;38.79;101503.25;4953277;28;8869;-80
2021/08/14 10:31:41;;;;;;;;;7.00;7.00;;;;;29.04;39.62;101499.19;4941082;29;8849;-80
2021/08/14 10:34:37;;;;;;;;;5.80;5.80;;;;;28.97;38.59;101508.66;4940923;28;8893;-81
2021/08/14 10:37:34;;;;;;;;;10.00;8.80;;;;;28.70;38.93;101508.00;4953492;29;8881;-78
2021/08/14 10:40:59;;;;;;;;;4.40;4.40;;;;;28.90;38.79;101513.69;4953335;29;9019;-77
2021/08/14 10:43:57;;;;;;;;;6.20;6.20;;;;;29.30;38.49;101505.97;4953635;29;8861;-82
2021/08/14 10:46:56;;;;;;;;;5.60;5.60;;;;;29.24;38.69;101502.03;4953890;29;8861;-79
2021/08/14 10:49:52;;;;;;;;;7.20;6.40;;;;;29.49;38.86;101492.91;4954270;29;9607;-83
2021/08/14 10:52:47;;;;;;;;;7.00;7.00;;;;;29.67;38.55;101504.69;4953633;29;8917;-81
2021/08/14 10:55:46;;;;;;;;;5.00;5.00;;;;;29.75;38.56;101500.44;4955880;28;8880;-81
2021/08/14 10:58:42;;;;;;;;;7.00;7.00;;;;;29.99;38.11;101495.38;4958208;28;8889;-77
2021/08/14 11:01:30;;;;;;;;;6.40;6.40;;;;;30.40;37.58;101497.56;4959438;28;8896;-81
2021/08/14 11:04:40;;;;;;;;;4.80;4.80;;;;;30.58;36.39;101499.91;4943877;28;8865;-82
2021/08/14 11:07:41;;;;;;;;;6.60;6.60;;;;;30.56;37.31;101493.06;4958024;28;8861;-78
2021/08/14 11:10:41;;;;;;;;;5.20;5.20;;;;;30.66;36.39;101489.94;4957667;28;8861;-80
2021/08/14 11:13:39;;;;;;;;;12.40;9.60;;;;;30.63;36.66;101481.44;4959718;28;8845;-81
2021/08/14 11:17:00;;;;;;;;;8.00;8.00;;;;;30.69;36.20;101493.97;4956741;28;8864;-81
2021/08/14 11:19:58;;;;;;;;;5.00;5.00;;;;;30.73;36.88;101486.06;4956683;28;8865;-81
2021/08/14 11:22:57;;;;;;;;;6.00;6.00;;;;;30.90;37.18;101476.22;4957540;28;8927;-79
2021/08/14 11:25:40;;;;;;;;;7.00;7.00;;;;;31.13;35.06;101497.97;4942280;28;8969;-78
2021/08/14 11:28:20;;;;;;;;;5.00;5.00;;;;;31.05;35.17;101479.41;4960863;28;8901;-80
2021/08/14 11:31:19;;;;;;;;;9.00;8.00;;;;;31.40;34.57;101485.31;4956203;28;8881;-78
2021/08/14 11:34:13;;;;;;;;;4.00;4.00;;;;;31.44;35.37;101478.25;4959876;28;8892;-78
2021/08/14 11:37:09;;;;;;;;;6.00;6.00;;;;;30.89;35.35;101480.28;4944401;28;8885;-75
2021/08/14 11:40:05;;;;;;;;;5.00;5.00;;;;;31.59;34.81;101478.56;4944191;28;8853;-76
2021/08/14 11:43:06;;;;;;;;;6.00;6.00;;;;;31.57;33.81;101475.38;4956755;28;8853;-78
2021/08/14 11:46:06;;;;;;;;;6.60;6.60;;;;;31.39;34.97;101470.25;4952784;28;8996;-76
2021/08/14 11:49:03;;;;;;;;;6.40;6.00;;;;;31.77;35.15;101473.09;4942520;28;8887;-78
2021/08/14 11:52:03;;;;;;;;;6.80;6.80;;;;;32.12;34.18;101469.47;4961759;28;9656;-78
2021/08/14 11:55:10;;;;;;;;;5.60;5.60;;;;;31.97;33.03;101472.81;4948899;28;8921;-76
2021/08/14 11:58:02;;;;;;;;;2.00;2.00;;;;;32.53;32.96;101463.53;4977731;28;8860;-77
2021/08/14 12:00:58;;;;;;;;;5.80;5.80;;;;;32.54;33.31;101459.41;4968479;28;8859;-78
2021/08/14 12:03:59;;;;;;;;;5.60;5.60;;;;;32.12;33.58;101453.09;4955266;28;8877;-79
2021/08/14 12:06:56;;;;;;;;;5.60;5.60;;;;;31.98;33.45;101453.63;4958270;28;8955;-77
2021/08/14 12:09:52;;;;;;;;;5.00;5.00;;;;;32.39;32.76;101448.94;4956425;28;9587;-78
2021/08/14 12:13:03;;;;;;;;;5.60;5.60;;;;;32.99;31.88;101451.63;4956260;28;9602;-79
2021/08/14 12:16:16;;;;;;;;;4.40;4.40;;;;;32.61;32.01;101450.53;4955794;28;8992;-78
2021/08/14 12:19:21;;;;;;;;;2.40;2.40;;;;;32.89;32.67;101467.94;4943351;28;8843;-79
2021/08/14 12:22:17;;;;;;;;;4.60;4.20;;;;;33.23;31.74;101454.75;4956119;28;8899;-78
2021/08/14 12:25:23;;;;;;;;;4.60;4.60;;;;;32.75;31.73;101448.41;4955316;28;8925;-77
2021/08/14 12:28:09;;;;;;;;;5.60;5.60;;;;;33.43;30.44;101447.41;4957955;28;8871;-75
2021/08/14 12:30:42;;;;;;;;;7.00;7.00;;;;;33.09;31.50;101444.66;4939747;28;8853;-75
2021/08/14 12:33:23;;;;;;;;;10.00;6.00;;;;;32.89;31.66;101434.34;4956009;28;8861;-76
2021/08/14 12:36:00;;;;;;;;;4.00;4.00;;;;;33.21;31.57;101438.03;4957024;28;8880;-75
2021/08/14 12:38:30;;;;;;;;;6.00;6.00;;;;;33.29;31.16;101444.28;4957385;28;8869;-76
2021/08/14 12:41:13;;;;;;;;;6.80;6.80;;;;;32.73;31.81;101440.28;4939586;28;8888;-75
2021/08/14 12:44:10;;;;;;;;;4.80;4.80;;;;;32.81;32.00;101443.66;4955070;28;8889;-74
2021/08/14 12:47:05;;;;;;;;;4.80;4.80;;;;;32.69;30.89;101441.69;4955577;28;8849;-76
2021/08/14 12:50:28;;;;;;;;;5.80;5.80;;;;;32.73;31.12;101442.34;4943263;28;8898;-77
2021/08/14 12:53:26;;;;;;;;;6.20;6.20;;;;;32.83;31.76;101432.56;4953815;28;9709;-78
2021/08/14 12:56:21;;;;;;;;;5.00;5.00;;;;;32.75;31.28;101434.91;4942384;28;8864;-77
2021/08/14 12:59:18;;;;;;;;;7.40;7.20;;;;;33.32;30.68;101432.66;4954441;28;8857;-78
2021/08/14 13:02:16;;;;;;;;;11.60;9.20;;;;;32.13;31.75;101439.59;4957901;28;8869;-80
2021/08/14 13:05:12;;;;;;;;;4.60;4.60;;;;;32.84;31.37;101437.00;4955833;28;8987;-79
2021/08/14 13:07:54;;;;;;;;;4.00;4.00;;;;;32.71;30.97;101442.00;4942858;28;9774;-79
2021/08/14 13:10:45;;;;;;;;;4.00;4.00;;;;;32.28;31.75;101430.06;4945545;28;8999;-79